Montevideo, MN

2:36 AM CDT on April 26, 2018 (GMT -0500)
Montevideo-Chippewa County

Weather History for KMVE - March, 2014

Change the Weather History Date:

Saturday, March 8, 2014

  Actual Average Record
Temperature  
Mean Temperature 18 °F -  
Max Temperature 30 °F 36 °F 68 °F (1987)
Min Temperature 5 °F 16 °F -11 °F (1951)
Degree Days  
Heating Degree Days 48    
Moisture  
Dew Point 13 °F    
Average Humidity 85    
Maximum Humidity 93    
Minimum Humidity 69    
Precipitation  
Precipitation 0.00 in - - ()
Sea Level Pressure  
Sea Level Pressure 30.28 in    
Wind  
Wind Speed 6 mph (WNW)    
Max Wind Speed 12 mph    
Max Gust Speed -    
Visibility 10 miles    
Events      
Averages and records for this station are not official NWS values.
T = Trace of Precipitation, MM = Missing Value Source: NWS Daily Summary

Daily Weather History Graph

Daily Weather History Graph

Search for Another Location

Airport or City:

Astronomy

Mar. 08, 2014 Rise Set
Actual Time 6:48 AM CST 6:19 PM CST
Civil Twilight 6:18 AM CST 6:49 PM CST
Nautical Twilight 5:44 AM CST 7:23 PM CST
Astronomical Twilight 5:10 AM CST 7:57 PM CST
Moon 11:13 AM CST (3/8) 1:34 AM CST (3/8)
Length of Visible Light 12h 30m
Length of Day
11h 31m
First Quarter, 52% of the Moon is Illuminated
Mar 8
First Quarter
Mar 16
Full
Mar 23
Last Quarter
Mar 30
New
Apr 7
First Quarter

Hourly Weather History & Observations

Time (CST) Temp. Windchill Dew Point Humidity Pressure Visibility Wind Dir Wind Speed Gust Speed Precip Events Conditions
12:14 AM 10.4 °F -0.4 °F 8.6 °F 92% 30.28 in 10.0 mi North 6.9 mph - N/A   Clear
12:34 AM 10.4 °F 0.8 °F 6.8 °F 85% 30.28 in 10.0 mi NNW 5.8 mph - N/A   Clear
12:53 AM 8.6 °F -1.3 °F 6.8 °F 92% 30.29 in 10.0 mi NNW 5.8 mph - N/A   Clear
1:14 AM 8.6 °F -3.7 °F 6.8 °F 92% 30.30 in 10.0 mi NNW 8.1 mph - N/A   Clear
1:34 AM 8.6 °F -2.6 °F 6.8 °F 92% 30.31 in 10.0 mi North 6.9 mph - N/A   Clear
1:54 AM 8.6 °F -4.7 °F 6.8 °F 92% 30.31 in 10.0 mi NNW 9.2 mph - N/A   Clear
2:14 AM 8.6 °F -5.5 °F 6.8 °F 92% 30.31 in 10.0 mi North 10.4 mph - N/A   Clear
2:34 AM 6.8 °F -6.9 °F 5.0 °F 92% 30.31 in 10.0 mi NNW 9.2 mph - N/A   Clear
2:54 AM 6.8 °F -7.8 °F 5.0 °F 92% 30.31 in 10.0 mi North 10.4 mph - N/A   Clear
3:13 AM 6.8 °F -5.9 °F 5.0 °F 92% 30.31 in 10.0 mi North 8.1 mph - N/A   Clear
3:34 AM 6.8 °F -4.8 °F 5.0 °F 92% 30.31 in 10.0 mi North 6.9 mph - N/A   Clear
3:54 AM 6.8 °F -3.5 °F 3.2 °F 85% 30.31 in 10.0 mi North 5.8 mph - N/A   Clear
4:13 AM 6.8 °F -2.0 °F 3.2 °F 85% 30.30 in 10.0 mi North 4.6 mph - N/A   Clear
4:34 AM 6.8 °F -0.1 °F 3.2 °F 85% 30.30 in 10.0 mi NNW 3.5 mph - N/A   Clear
4:54 AM 5.0 °F -5.6 °F 3.2 °F 92% 30.30 in 10.0 mi NNW 5.8 mph - N/A   Scattered Clouds
5:13 AM 6.8 °F -4.8 °F 3.2 °F 85% 30.31 in 10.0 mi NNW 6.9 mph - N/A   Scattered Clouds
5:34 AM 5.0 °F -8.1 °F 3.2 °F 92% 30.32 in 10.0 mi North 8.1 mph - N/A   Scattered Clouds
5:54 AM 5.0 °F -5.6 °F 3.2 °F 92% 30.32 in 10.0 mi NNW 5.8 mph - N/A   Clear
6:13 AM 5.0 °F -8.1 °F 3.2 °F 92% 30.33 in 10.0 mi NNW 8.1 mph - N/A   Clear
6:34 AM 5.0 °F -5.6 °F 3.2 °F 92% 30.33 in 10.0 mi NNW 5.8 mph - N/A   Clear
6:54 AM 5.0 °F -4.1 °F 1.4 °F 85% 30.33 in 10.0 mi NNW 4.6 mph - N/A   Clear
7:13 AM 6.8 °F -3.5 °F 3.2 °F 85% 30.33 in 10.0 mi NNW 5.8 mph - N/A   Clear
7:34 AM 8.6 °F -2.6 °F 6.8 °F 92% 30.33 in 10.0 mi NNW 6.9 mph - N/A   Clear
7:54 AM 10.4 °F -0.4 °F 6.8 °F 85% 30.35 in 10.0 mi NNW 6.9 mph - N/A   Clear
8:13 AM 12.2 °F 2.9 °F 8.6 °F 85% 30.35 in 10.0 mi North 5.8 mph - N/A   Scattered Clouds
8:34 AM 12.2 °F 0.7 °F 8.6 °F 85% 30.36 in 10.0 mi NNW 8.1 mph - N/A   Overcast
8:54 AM 12.2 °F 2.9 °F 8.6 °F 85% 30.35 in 10.0 mi North 5.8 mph - N/A   Overcast
9:13 AM 12.2 °F 1.7 °F 10.4 °F 92% 30.36 in 10.0 mi North 6.9 mph - N/A   Overcast
9:34 AM 14.0 °F - 10.4 °F 86% 30.36 in 10.0 mi Calm Calm - N/A   Overcast
9:54 AM 15.8 °F 10.2 °F 10.4 °F 79% 30.36 in 10.0 mi North 3.5 mph - N/A   Overcast
10:13 AM 15.8 °F - 12.2 °F 86% 30.36 in 10.0 mi Calm Calm - N/A   Overcast
10:34 AM 19.4 °F - 15.8 °F 86% 30.35 in 10.0 mi Calm Calm - N/A   Overcast
10:54 AM 21.2 °F - 17.6 °F 86% 30.35 in 10.0 mi Calm Calm - N/A   Overcast
11:13 AM 21.2 °F - 19.4 °F 93% 30.35 in 10.0 mi Calm Calm - N/A   Overcast
11:34 AM 23.0 °F 18.4 °F 21.2 °F 93% 30.35 in 10.0 mi North 3.5 mph - N/A   Overcast
11:54 AM 24.8 °F 19.1 °F 21.2 °F 86% 30.34 in 10.0 mi WNW 4.6 mph - N/A   Overcast
12:13 PM 24.8 °F - 23.0 °F 93% 30.34 in 10.0 mi Calm Calm - N/A   Overcast
12:34 PM 24.8 °F 17.9 °F 21.2 °F 86% 30.34 in 10.0 mi WNW 5.8 mph - N/A   Overcast
12:54 PM 24.8 °F 19.1 °F 19.4 °F 80% 30.33 in 10.0 mi WNW 4.6 mph - N/A   Overcast
1:14 PM 24.8 °F 19.1 °F 19.4 °F 80% 30.32 in 10.0 mi West 4.6 mph - N/A   Overcast
1:34 PM 26.6 °F 21.2 °F 19.4 °F 74% 30.31 in 10.0 mi WNW 4.6 mph - N/A   Overcast
1:54 PM 26.6 °F 20.0 °F 19.4 °F 74% 30.30 in 10.0 mi NW 5.8 mph - N/A   Overcast
2:14 PM 26.6 °F 21.2 °F 19.4 °F 74% 30.30 in 10.0 mi WNW 4.6 mph - N/A   Overcast
2:34 PM 26.6 °F 21.2 °F 19.4 °F 74% 30.29 in 10.0 mi WSW 4.6 mph - N/A   Overcast
2:54 PM 28.4 °F 23.3 °F 21.2 °F 74% 30.29 in 10.0 mi WSW 4.6 mph - N/A   Overcast
3:14 PM 28.4 °F 22.2 °F 21.2 °F 74% 30.28 in 10.0 mi WSW 5.8 mph - N/A   Overcast
3:34 PM 28.4 °F 20.4 °F 21.2 °F 74% 30.27 in 10.0 mi SW 8.1 mph - N/A   Scattered Clouds
3:54 PM 28.4 °F 22.2 °F 21.2 °F 74% 30.28 in 10.0 mi West 5.8 mph - N/A   Scattered Clouds
4:14 PM 30.2 °F 23.4 °F 21.2 °F 69% 30.27 in 10.0 mi WSW 6.9 mph - N/A   Scattered Clouds
4:34 PM 28.4 °F 23.3 °F 21.2 °F 74% 30.26 in 10.0 mi SW 4.6 mph - N/A   Clear
4:54 PM 28.4 °F 22.2 °F 21.2 °F 74% 30.26 in 10.0 mi SW 5.8 mph - N/A   Clear
5:14 PM 28.4 °F 23.3 °F 19.4 °F 69% 30.25 in 10.0 mi WSW 4.6 mph - N/A   Clear
5:34 PM 26.6 °F 21.2 °F 19.4 °F 74% 30.25 in 10.0 mi SSW 4.6 mph - N/A   Clear
5:54 PM 26.6 °F 21.2 °F 19.4 °F 74% 30.24 in 10.0 mi SSW 4.6 mph - N/A   Clear
6:14 PM 24.8 °F 17.9 °F 19.4 °F 80% 30.23 in 10.0 mi SSW 5.8 mph - N/A   Clear
6:34 PM 23.0 °F 17.0 °F 17.6 °F 80% 30.24 in 10.0 mi SW 4.6 mph - N/A   Clear
6:53 PM 21.2 °F - 17.6 °F 86% 30.23 in 10.0 mi Calm Calm - N/A   Clear
7:14 PM 21.2 °F 16.4 °F 17.6 °F 86% 30.22 in 10.0 mi SSW 3.5 mph - N/A   Clear
7:33 PM 21.2 °F 14.9 °F 17.6 °F 86% 30.21 in 10.0 mi SSW 4.6 mph - N/A   Clear
7:54 PM 21.2 °F 14.9 °F 17.6 °F 86% 30.21 in 10.0 mi SW 4.6 mph - N/A   Clear
8:14 PM 19.4 °F 12.8 °F 17.6 °F 93% 30.21 in 10.0 mi SSW 4.6 mph - N/A   Clear
8:33 PM 19.4 °F 11.5 °F 17.6 °F 93% 30.20 in 10.0 mi SSW 5.8 mph - N/A   Clear
8:54 PM 19.4 °F 11.5 °F 17.6 °F 93% 30.19 in 10.0 mi SW 5.8 mph - N/A   Clear
9:14 PM 19.4 °F 11.5 °F 15.8 °F 86% 30.17 in 10.0 mi SSW 5.8 mph - N/A   Clear
9:33 PM 19.4 °F 12.8 °F 15.8 °F 86% 30.17 in 10.0 mi SSW 4.6 mph - N/A   Clear
9:54 PM 19.4 °F 12.8 °F 15.8 °F 86% 30.16 in 10.0 mi SSW 4.6 mph - N/A   Clear
10:14 PM 19.4 °F 11.5 °F 15.8 °F 86% 30.16 in 10.0 mi SSW 5.8 mph - N/A   Clear
10:33 PM 19.4 °F 10.4 °F 15.8 °F 86% 30.16 in 10.0 mi SSW 6.9 mph - N/A   Clear
10:54 PM 19.4 °F 10.4 °F 15.8 °F 86% 30.14 in 10.0 mi SSW 6.9 mph - N/A   Clear
11:14 PM 19.4 °F 7.9 °F 15.8 °F 86% 30.12 in 10.0 mi SSW 10.4 mph - N/A   Clear
11:33 PM 21.2 °F 9.5 °F 17.6 °F 86% 30.10 in 10.0 mi SW 11.5 mph - N/A   Clear
11:54 PM 21.2 °F 10.9 °F 17.6 °F 86% 30.08 in 10.0 mi SSW 9.2 mph - N/A   Clear